createdAt,value
2022-12-25T00:00:47.000Z,5.87
2022-12-25T00:01:47.000Z,5.87
2022-12-25T00:02:47.000Z,5.87
2022-12-25T00:03:47.000Z,5.88
2022-12-25T00:04:47.000Z,5.84
2022-12-25T00:05:47.000Z,5.84
2022-12-25T00:06:47.000Z,5.85
2022-12-25T00:07:47.000Z,5.87
2022-12-25T00:08:47.000Z,5.80
2022-12-25T00:09:47.000Z,5.80
2022-12-25T00:10:47.000Z,5.78
2022-12-25T00:11:47.000Z,5.77
2022-12-25T00:12:47.000Z,5.75
2022-12-25T00:13:47.000Z,5.75
2022-12-25T00:14:47.000Z,5.75
2022-12-25T00:15:47.000Z,5.70
2022-12-25T00:16:47.000Z,5.73
2022-12-25T00:17:47.000Z,5.70
2022-12-25T00:18:47.000Z,5.67
2022-12-25T00:19:47.000Z,5.67
2022-12-25T00:20:47.000Z,5.62
2022-12-25T00:21:47.000Z,5.59
2022-12-25T00:22:47.000Z,5.58
2022-12-25T00:23:47.000Z,5.58
2022-12-25T00:24:47.000Z,5.56
2022-12-25T00:25:47.000Z,5.52
2022-12-25T00:26:47.000Z,5.49
2022-12-25T00:27:47.000Z,5.48
2022-12-25T00:28:47.000Z,5.49
2022-12-25T00:29:47.000Z,5.44
2022-12-25T00:30:47.000Z,5.41
2022-12-25T00:31:47.000Z,5.42
2022-12-25T00:32:47.000Z,5.40
2022-12-25T00:33:47.000Z,5.38
2022-12-25T00:34:47.000Z,5.32
2022-12-25T00:35:47.000Z,5.32
2022-12-25T00:36:47.000Z,5.29
2022-12-25T00:37:47.000Z,5.27
2022-12-25T00:38:47.000Z,5.23
2022-12-25T00:39:47.000Z,5.22
2022-12-25T00:40:47.000Z,5.19
2022-12-25T00:41:47.000Z,5.19
2022-12-25T00:42:47.000Z,5.14
2022-12-25T00:43:47.000Z,5.09
2022-12-25T00:44:47.000Z,5.08
2022-12-25T00:45:47.000Z,5.08
2022-12-25T00:46:47.000Z,5.05
2022-12-25T00:47:47.000Z,5.02
2022-12-25T00:48:47.000Z,5.04
2022-12-25T00:49:47.000Z,5.02
2022-12-25T00:50:47.000Z,4.97
2022-12-25T00:51:47.000Z,4.93
2022-12-25T00:52:47.000Z,4.93
2022-12-25T00:53:47.000Z,4.87
2022-12-25T00:54:47.000Z,4.80
2022-12-25T00:55:47.000Z,4.80
2022-12-25T00:56:47.000Z,4.75
2022-12-25T00:57:47.000Z,4.71
2022-12-25T00:58:47.000Z,4.69
2022-12-25T00:59:47.000Z,4.64
2022-12-25T01:00:47.000Z,4.62
2022-12-25T01:01:47.000Z,4.59
2022-12-25T01:02:47.000Z,4.56
2022-12-25T01:03:47.000Z,4.51
2022-12-25T01:04:47.000Z,4.49
2022-12-25T01:05:47.000Z,4.44
2022-12-25T01:06:47.000Z,4.42
2022-12-25T01:07:47.000Z,4.38
2022-12-25T01:08:47.000Z,4.36
2022-12-25T01:09:46.000Z,4.31
2022-12-25T01:10:46.000Z,4.31
2022-12-25T01:11:46.000Z,4.24
2022-12-25T01:12:46.000Z,4.24
2022-12-25T01:13:46.000Z,4.20
2022-12-25T01:14:46.000Z,4.17
2022-12-25T01:15:46.000Z,4.11
2022-12-25T01:16:46.000Z,4.06
2022-12-25T01:17:46.000Z,4.04
2022-12-25T01:18:46.000Z,4.00
2022-12-25T01:19:46.000Z,3.95
2022-12-25T01:20:46.000Z,3.90
2022-12-25T01:21:46.000Z,3.89
2022-12-25T01:22:46.000Z,3.84
2022-12-25T01:23:46.000Z,3.78
2022-12-25T01:24:46.000Z,3.75
2022-12-25T01:25:46.000Z,3.72
2022-12-25T01:26:46.000Z,3.74
2022-12-25T01:27:46.000Z,3.63
2022-12-25T01:28:46.000Z,3.63
2022-12-25T01:29:46.000Z,3.64
2022-12-25T01:30:46.000Z,3.62
2022-12-25T01:31:46.000Z,3.62
2022-12-25T01:32:46.000Z,3.60
2022-12-25T01:33:46.000Z,3.59
2022-12-25T01:34:46.000Z,3.59
2022-12-25T01:35:46.000Z,3.57
2022-12-25T01:36:46.000Z,3.54
2022-12-25T01:37:46.000Z,3.57
2022-12-25T01:38:46.000Z,3.56
2022-12-25T01:39:46.000Z,3.57
2022-12-25T01:40:46.000Z,3.57
2022-12-25T01:41:46.000Z,3.57
2022-12-25T01:42:46.000Z,3.62
2022-12-25T01:43:46.000Z,3.60
2022-12-25T01:44:46.000Z,3.60
2022-12-25T01:45:46.000Z,3.60
2022-12-25T01:46:46.000Z,3.56
2022-12-25T01:47:46.000Z,3.54
2022-12-25T01:48:46.000Z,3.49
2022-12-25T01:49:46.000Z,3.45
2022-12-25T01:50:46.000Z,3.44
2022-12-25T01:51:46.000Z,3.44
2022-12-25T01:52:46.000Z,3.42
2022-12-25T01:53:46.000Z,3.42
2022-12-25T01:54:46.000Z,3.41
2022-12-25T01:55:46.000Z,3.37
2022-12-25T01:56:46.000Z,3.39
2022-12-25T01:57:46.000Z,3.35
2022-12-25T01:58:46.000Z,3.39
2022-12-25T01:59:46.000Z,3.39
2022-12-25T02:00:46.000Z,3.37
2022-12-25T02:01:46.000Z,3.44
2022-12-25T02:02:46.000Z,3.45
2022-12-25T02:03:46.000Z,3.46
2022-12-25T02:04:46.000Z,3.49
2022-12-25T02:05:46.000Z,3.53
2022-12-25T02:06:46.000Z,3.56
2022-12-25T02:07:46.000Z,3.54
2022-12-25T02:08:46.000Z,3.57
2022-12-25T02:09:46.000Z,3.56
2022-12-25T02:09:46.000Z,3.56
2022-12-25T02:10:46.000Z,3.50
2022-12-25T02:10:46.000Z,3.50
2022-12-25T02:11:46.000Z,3.53
2022-12-25T02:11:46.000Z,3.53
2022-12-25T02:12:46.000Z,3.45
2022-12-25T02:12:46.000Z,3.45
2022-12-25T02:13:46.000Z,3.44
2022-12-25T02:13:46.000Z,3.44
2022-12-25T02:14:46.000Z,3.35
2022-12-25T02:15:46.000Z,3.33
2022-12-25T02:16:46.000Z,3.28
2022-12-25T02:17:46.000Z,3.23
2022-12-25T02:18:46.000Z,3.17
2022-12-25T02:19:46.000Z,3.12
2022-12-25T02:20:46.000Z,3.07
2022-12-25T02:21:46.000Z,3.05
2022-12-25T02:22:46.000Z,3.05
2022-12-25T02:23:46.000Z,3.10
2022-12-25T02:24:46.000Z,3.13
2022-12-25T02:25:46.000Z,3.17
2022-12-25T02:26:46.000Z,3.26
2022-12-25T02:27:46.000Z,3.28
2022-12-25T02:28:46.000Z,3.35
2022-12-25T02:29:46.000Z,3.39
2022-12-25T02:30:46.000Z,3.45
2022-12-25T02:31:46.000Z,3.46
2022-12-25T02:32:46.000Z,3.59
2022-12-25T02:33:46.000Z,3.59
2022-12-25T02:34:46.000Z,3.67
2022-12-25T02:35:46.000Z,3.71
2022-12-25T02:36:46.000Z,3.77
2022-12-25T02:37:46.000Z,3.78
2022-12-25T02:38:46.000Z,3.86
2022-12-25T02:39:46.000Z,3.90
2022-12-25T02:40:46.000Z,3.92
2022-12-25T02:41:46.000Z,3.96
2022-12-25T02:42:46.000Z,3.98
2022-12-25T02:43:46.000Z,3.99
2022-12-25T02:44:46.000Z,3.99
2022-12-25T02:45:46.000Z,4.02
2022-12-25T02:46:46.000Z,4.00
2022-12-25T02:47:46.000Z,4.00
2022-12-25T02:48:46.000Z,3.99
2022-12-25T02:49:46.000Z,4.04
2022-12-25T02:50:46.000Z,3.99
2022-12-25T02:51:45.000Z,3.96
2022-12-25T02:52:45.000Z,3.96
2022-12-25T02:53:45.000Z,3.95
2022-12-25T02:54:45.000Z,3.92
2022-12-25T02:55:45.000Z,3.93
2022-12-25T02:56:45.000Z,3.90
2022-12-25T02:57:45.000Z,3.92
2022-12-25T02:58:45.000Z,3.90
2022-12-25T02:59:45.000Z,3.93
2022-12-25T03:00:45.000Z,3.95
2022-12-25T03:01:45.000Z,4.00
2022-12-25T03:02:45.000Z,4.02
2022-12-25T03:03:45.000Z,4.02
2022-12-25T03:04:45.000Z,4.07
2022-12-25T03:05:45.000Z,4.08
2022-12-25T03:06:45.000Z,4.14
2022-12-25T03:07:45.000Z,4.18
2022-12-25T03:08:45.000Z,4.25
2022-12-25T03:09:45.000Z,4.32
2022-12-25T03:10:45.000Z,4.32
2022-12-25T03:11:45.000Z,4.43
2022-12-25T03:12:45.000Z,4.42
2022-12-25T03:13:45.000Z,4.42
2022-12-25T03:14:45.000Z,4.43
2022-12-25T03:15:45.000Z,4.47
2022-12-25T03:16:45.000Z,4.47
2022-12-25T03:17:45.000Z,4.49
2022-12-25T03:18:45.000Z,4.47
2022-12-25T03:19:45.000Z,4.50
2022-12-25T03:20:45.000Z,4.53
2022-12-25T03:21:45.000Z,4.53
2022-12-25T03:22:45.000Z,4.51
2022-12-25T03:23:45.000Z,4.53
2022-12-25T03:24:45.000Z,4.56
2022-12-25T03:25:45.000Z,4.56
2022-12-25T03:26:45.000Z,4.59
2022-12-25T03:27:45.000Z,4.64
2022-12-25T03:28:45.000Z,4.65
2022-12-25T03:29:45.000Z,4.64
2022-12-25T03:30:45.000Z,4.71
2022-12-25T03:31:45.000Z,4.68
2022-12-25T03:32:45.000Z,4.72
2022-12-25T03:33:45.000Z,4.69
2022-12-25T03:34:45.000Z,4.74
2022-12-25T03:35:45.000Z,4.75
2022-12-25T03:36:45.000Z,4.74
2022-12-25T03:37:45.000Z,4.72
2022-12-25T03:38:45.000Z,4.74
2022-12-25T03:39:45.000Z,4.71
2022-12-25T03:40:45.000Z,4.69
2022-12-25T03:41:45.000Z,4.71
2022-12-25T03:42:45.000Z,4.69
2022-12-25T03:43:45.000Z,4.69
2022-12-25T03:44:45.000Z,4.69
2022-12-25T03:45:45.000Z,4.65
2022-12-25T03:46:45.000Z,4.64
2022-12-25T03:47:45.000Z,4.64
2022-12-25T03:48:45.000Z,4.65
2022-12-25T03:49:45.000Z,4.65
2022-12-25T03:50:45.000Z,4.62
2022-12-25T03:51:45.000Z,4.61
2022-12-25T03:52:45.000Z,4.61
2022-12-25T03:53:45.000Z,4.62
2022-12-25T03:54:45.000Z,4.64
2022-12-25T03:55:45.000Z,4.62
2022-12-25T03:56:45.000Z,4.64
2022-12-25T03:57:45.000Z,4.61
2022-12-25T03:58:45.000Z,4.62
2022-12-25T03:59:45.000Z,4.64
2022-12-25T04:00:45.000Z,4.62
2022-12-25T04:01:45.000Z,4.65
2022-12-25T04:02:45.000Z,4.61
2022-12-25T04:03:45.000Z,4.65
2022-12-25T04:04:45.000Z,4.62
2022-12-25T04:05:45.000Z,4.65
2022-12-25T04:06:45.000Z,4.64
2022-12-25T04:07:45.000Z,4.64
2022-12-25T04:08:45.000Z,4.64
2022-12-25T04:09:45.000Z,4.59
2022-12-25T04:10:45.000Z,4.57
2022-12-25T04:11:45.000Z,4.62
2022-12-25T04:12:45.000Z,4.61
2022-12-25T04:13:45.000Z,4.59
2022-12-25T04:14:45.000Z,4.57
2022-12-25T04:15:45.000Z,4.59
2022-12-25T04:16:45.000Z,4.56
2022-12-25T04:17:45.000Z,4.57
2022-12-25T04:18:45.000Z,4.53
2022-12-25T04:19:45.000Z,4.57
2022-12-25T04:20:45.000Z,4.54
2022-12-25T04:21:45.000Z,4.54
2022-12-25T04:22:45.000Z,4.53
2022-12-25T04:23:45.000Z,4.54
2022-12-25T04:24:45.000Z,4.54
2022-12-25T04:25:45.000Z,4.51
2022-12-25T04:26:45.000Z,4.54
2022-12-25T04:27:45.000Z,4.53
2022-12-25T04:28:45.000Z,4.54
2022-12-25T04:29:45.000Z,4.56
2022-12-25T04:30:45.000Z,4.54
2022-12-25T04:31:45.000Z,4.56
2022-12-25T04:32:45.000Z,4.57
2022-12-25T04:33:45.000Z,4.56
2022-12-25T04:34:44.000Z,4.50
2022-12-25T04:35:44.000Z,4.50
2022-12-25T04:36:44.000Z,4.50
2022-12-25T04:37:44.000Z,4.53
2022-12-25T04:38:44.000Z,4.49
2022-12-25T04:39:44.000Z,4.49
2022-12-25T04:40:44.000Z,4.50
2022-12-25T04:41:44.000Z,4.47
2022-12-25T04:42:44.000Z,4.50
2022-12-25T04:43:44.000Z,4.50
2022-12-25T04:44:44.000Z,4.53
2022-12-25T04:45:44.000Z,4.53
2022-12-25T04:46:44.000Z,4.54
2022-12-25T04:47:44.000Z,4.51
2022-12-25T04:48:44.000Z,4.50
2022-12-25T04:49:44.000Z,4.54
2022-12-25T04:50:44.000Z,4.54
2022-12-25T04:51:44.000Z,4.57
2022-12-25T04:52:44.000Z,4.56
2022-12-25T04:53:44.000Z,4.54
2022-12-25T04:54:44.000Z,4.56
2022-12-25T04:55:44.000Z,4.57
2022-12-25T04:56:44.000Z,4.59
2022-12-25T04:57:44.000Z,4.59
2022-12-25T04:58:44.000Z,4.61
2022-12-25T04:59:44.000Z,4.56
2022-12-25T05:00:44.000Z,4.57
2022-12-25T05:01:44.000Z,4.57
2022-12-25T05:02:44.000Z,4.57
2022-12-25T05:03:44.000Z,4.54
2022-12-25T05:04:44.000Z,4.56
2022-12-25T05:05:44.000Z,4.51
2022-12-25T05:06:44.000Z,4.53
2022-12-25T05:07:44.000Z,4.51
2022-12-25T05:08:44.000Z,4.53
2022-12-25T05:09:44.000Z,4.50
2022-12-25T05:10:44.000Z,4.50
2022-12-25T05:11:44.000Z,4.49
2022-12-25T05:12:44.000Z,4.49
2022-12-25T05:13:44.000Z,4.49
2022-12-25T05:14:44.000Z,4.49
2022-12-25T05:15:44.000Z,4.43
2022-12-25T05:16:44.000Z,4.42
2022-12-25T05:17:44.000Z,4.44
2022-12-25T05:18:44.000Z,4.35
2022-12-25T05:19:44.000Z,4.38
2022-12-25T05:20:44.000Z,4.38
2022-12-25T05:21:44.000Z,4.34
2022-12-25T05:22:44.000Z,4.35
2022-12-25T05:23:44.000Z,4.31
2022-12-25T05:24:44.000Z,4.32
2022-12-25T05:25:44.000Z,4.31
2022-12-25T05:26:44.000Z,4.25
2022-12-25T05:27:44.000Z,4.26
2022-12-25T05:28:44.000Z,4.25
2022-12-25T05:29:44.000Z,4.24
2022-12-25T05:30:44.000Z,4.25
2022-12-25T05:31:44.000Z,4.21
2022-12-25T05:32:44.000Z,4.24
2022-12-25T05:33:44.000Z,4.20
2022-12-25T05:34:44.000Z,4.24
2022-12-25T05:35:44.000Z,4.25
2022-12-25T05:36:44.000Z,4.26
2022-12-25T05:37:44.000Z,4.26
2022-12-25T05:38:44.000Z,4.26
2022-12-25T05:39:44.000Z,4.24
2022-12-25T05:40:44.000Z,4.21
2022-12-25T05:41:44.000Z,4.24
2022-12-25T05:42:44.000Z,4.24
2022-12-25T05:43:44.000Z,4.24
2022-12-25T05:44:44.000Z,4.28
2022-12-25T05:45:44.000Z,4.28
2022-12-25T05:46:44.000Z,4.26
2022-12-25T05:47:44.000Z,4.31
2022-12-25T05:48:44.000Z,4.29
2022-12-25T05:49:44.000Z,4.28
2022-12-25T05:50:44.000Z,4.25
2022-12-25T05:51:44.000Z,4.29
2022-12-25T05:52:44.000Z,4.26
2022-12-25T05:53:44.000Z,4.24
2022-12-25T05:54:44.000Z,4.29
2022-12-25T05:55:44.000Z,4.28
2022-12-25T05:56:44.000Z,4.25
2022-12-25T05:57:44.000Z,4.28
2022-12-25T05:58:44.000Z,4.24
2022-12-25T05:59:44.000Z,4.25
2022-12-25T06:00:44.000Z,4.26
2022-12-25T06:01:44.000Z,4.28
2022-12-25T06:02:44.000Z,4.28
2022-12-25T06:03:44.000Z,4.26
2022-12-25T06:04:44.000Z,4.31
2022-12-25T06:05:44.000Z,4.31
2022-12-25T06:06:44.000Z,4.29
2022-12-25T06:07:44.000Z,4.29
2022-12-25T06:08:44.000Z,4.31
2022-12-25T06:09:44.000Z,4.31
2022-12-25T06:10:44.000Z,4.35
2022-12-25T06:11:44.000Z,4.35
2022-12-25T06:12:44.000Z,4.36
2022-12-25T06:13:44.000Z,4.36
2022-12-25T06:14:44.000Z,4.36
2022-12-25T06:15:44.000Z,4.36
2022-12-25T06:16:44.000Z,4.38
2022-12-25T06:17:44.000Z,4.35
2022-12-25T06:18:43.000Z,4.38
2022-12-25T06:19:43.000Z,4.36
2022-12-25T06:20:43.000Z,4.35
2022-12-25T06:21:43.000Z,4.39
2022-12-25T06:22:43.000Z,4.36
2022-12-25T06:23:43.000Z,4.36
2022-12-25T06:24:43.000Z,4.35
2022-12-25T06:25:43.000Z,4.36
2022-12-25T06:26:43.000Z,4.36
2022-12-25T06:27:43.000Z,4.38
2022-12-25T06:28:43.000Z,4.36
2022-12-25T06:29:43.000Z,4.34
2022-12-25T06:30:43.000Z,4.36
2022-12-25T06:31:43.000Z,4.36
2022-12-25T06:32:43.000Z,4.35
2022-12-25T06:33:43.000Z,4.31
2022-12-25T06:34:43.000Z,4.34
2022-12-25T06:35:43.000Z,4.34
2022-12-25T06:36:43.000Z,4.34
2022-12-25T06:37:43.000Z,4.35
2022-12-25T06:38:43.000Z,4.32
2022-12-25T06:39:43.000Z,4.32
2022-12-25T06:40:43.000Z,4.31
2022-12-25T06:41:43.000Z,4.26
2022-12-25T06:42:43.000Z,4.28
2022-12-25T06:43:43.000Z,4.26
2022-12-25T06:44:43.000Z,4.20
2022-12-25T06:45:43.000Z,4.20
2022-12-25T06:46:43.000Z,4.24
2022-12-25T06:47:43.000Z,4.18
2022-12-25T06:48:43.000Z,4.18
2022-12-25T06:49:43.000Z,4.17
2022-12-25T06:50:43.000Z,4.20
2022-12-25T06:51:43.000Z,4.18
2022-12-25T06:52:43.000Z,4.18
2022-12-25T06:53:43.000Z,4.18
2022-12-25T06:54:43.000Z,4.17
2022-12-25T06:55:43.000Z,4.18
2022-12-25T06:56:43.000Z,4.24
2022-12-25T06:57:43.000Z,4.21
2022-12-25T06:58:43.000Z,4.24
2022-12-25T06:59:43.000Z,4.21
2022-12-25T07:00:43.000Z,4.29
2022-12-25T07:01:43.000Z,4.31
2022-12-25T07:02:43.000Z,4.32
2022-12-25T07:03:43.000Z,4.31
2022-12-25T07:04:43.000Z,4.29
2022-12-25T07:05:43.000Z,4.34
2022-12-25T07:06:43.000Z,4.32
2022-12-25T07:07:43.000Z,4.31
2022-12-25T07:08:43.000Z,4.32
2022-12-25T07:09:43.000Z,4.35
2022-12-25T07:10:43.000Z,4.36
2022-12-25T07:11:43.000Z,4.38
2022-12-25T07:12:43.000Z,4.38
2022-12-25T07:13:43.000Z,4.42
2022-12-25T07:14:43.000Z,4.44
2022-12-25T07:15:43.000Z,4.46
2022-12-25T07:16:43.000Z,4.50
2022-12-25T07:17:43.000Z,4.50
2022-12-25T07:18:43.000Z,4.49
2022-12-25T07:19:43.000Z,4.51
2022-12-25T07:20:43.000Z,4.54
2022-12-25T07:21:43.000Z,4.57
2022-12-25T07:22:43.000Z,4.62
2022-12-25T07:23:43.000Z,4.57
2022-12-25T07:24:43.000Z,4.64
2022-12-25T07:25:43.000Z,4.67
2022-12-25T07:26:43.000Z,4.69
2022-12-25T07:27:43.000Z,4.72
2022-12-25T07:28:43.000Z,4.74
2022-12-25T07:29:43.000Z,4.77
2022-12-25T07:30:43.000Z,4.80
2022-12-25T07:31:43.000Z,4.83
2022-12-25T07:32:43.000Z,4.86
2022-12-25T07:33:43.000Z,4.87
2022-12-25T07:34:43.000Z,4.93
2022-12-25T07:35:43.000Z,4.93
2022-12-25T07:36:43.000Z,4.94
2022-12-25T07:37:43.000Z,5.01
2022-12-25T07:38:43.000Z,4.97
2022-12-25T07:39:43.000Z,5.01
2022-12-25T07:40:43.000Z,5.02
2022-12-25T07:41:43.000Z,5.01
2022-12-25T07:42:43.000Z,5.02
2022-12-25T07:43:43.000Z,5.04
2022-12-25T07:44:43.000Z,5.09
2022-12-25T07:45:43.000Z,5.06
2022-12-25T07:46:43.000Z,5.11
2022-12-25T07:47:43.000Z,5.14
2022-12-25T07:48:43.000Z,5.12
2022-12-25T07:49:43.000Z,5.12
2022-12-25T07:50:43.000Z,5.19
2022-12-25T07:51:43.000Z,5.14
2022-12-25T07:52:43.000Z,5.20
2022-12-25T07:53:43.000Z,5.20
2022-12-25T07:54:43.000Z,5.24
2022-12-25T07:55:43.000Z,5.29
2022-12-25T07:56:43.000Z,5.27
2022-12-25T07:57:43.000Z,5.30
2022-12-25T07:58:43.000Z,5.30
2022-12-25T07:59:43.000Z,5.32
2022-12-25T08:00:43.000Z,5.35
2022-12-25T08:01:43.000Z,5.37
2022-12-25T08:02:42.000Z,5.38
2022-12-25T08:03:42.000Z,5.38
2022-12-25T08:04:42.000Z,5.41
2022-12-25T08:05:42.000Z,5.42
2022-12-25T08:06:42.000Z,5.45
2022-12-25T08:07:42.000Z,5.48
2022-12-25T08:08:42.000Z,5.51
2022-12-25T08:09:42.000Z,5.55
2022-12-25T08:10:42.000Z,5.55
2022-12-25T08:11:42.000Z,5.56
2022-12-25T08:12:42.000Z,5.52
2022-12-25T08:13:42.000Z,5.59
2022-12-25T08:14:42.000Z,5.62
2022-12-25T08:15:42.000Z,5.66
2022-12-25T08:16:42.000Z,5.67
2022-12-25T08:17:42.000Z,5.70
2022-12-25T08:18:42.000Z,5.77
2022-12-25T08:19:42.000Z,5.80
2022-12-25T08:20:42.000Z,5.87
2022-12-25T08:21:42.000Z,5.90
2022-12-25T08:22:42.000Z,5.98
2022-12-25T08:23:42.000Z,6.01
2022-12-25T08:24:42.000Z,6.02
2022-12-25T08:25:42.000Z,6.08
2022-12-25T08:26:42.000Z,6.16
2022-12-25T08:27:42.000Z,6.17
2022-12-25T08:28:42.000Z,6.27
2022-12-25T08:29:42.000Z,6.30
2022-12-25T08:30:42.000Z,6.33
2022-12-25T08:31:42.000Z,6.39
2022-12-25T08:32:42.000Z,6.45
2022-12-25T08:33:42.000Z,6.50
2022-12-25T08:34:42.000Z,6.60
2022-12-25T08:35:42.000Z,6.61
2022-12-25T08:36:42.000Z,6.65
2022-12-25T08:37:42.000Z,6.71
2022-12-25T08:38:42.000Z,6.75
2022-12-25T08:39:42.000Z,6.75
2022-12-25T08:40:42.000Z,6.79
2022-12-25T08:41:42.000Z,6.86
2022-12-25T08:42:42.000Z,6.90
2022-12-25T08:43:42.000Z,6.93
2022-12-25T08:44:42.000Z,6.97
2022-12-25T08:45:42.000Z,7.01
2022-12-25T08:46:42.000Z,7.07
2022-12-25T08:47:42.000Z,7.12
2022-12-25T08:48:42.000Z,7.18
2022-12-25T08:49:42.000Z,7.26
2022-12-25T08:50:42.000Z,7.29
2022-12-25T08:51:42.000Z,7.33
2022-12-25T08:52:42.000Z,7.39
2022-12-25T08:53:42.000Z,7.45
2022-12-25T08:54:42.000Z,7.48
2022-12-25T08:55:42.000Z,7.52
2022-12-25T08:56:42.000Z,7.55
2022-12-25T08:57:42.000Z,7.58
2022-12-25T08:58:42.000Z,7.63
2022-12-25T08:59:42.000Z,7.70
2022-12-25T09:00:42.000Z,7.73
2022-12-25T09:01:42.000Z,7.77
2022-12-25T09:02:42.000Z,7.81
2022-12-25T09:03:42.000Z,7.85
2022-12-25T09:04:42.000Z,7.88
2022-12-25T09:05:42.000Z,7.91
2022-12-25T09:06:42.000Z,7.96
2022-12-25T09:07:42.000Z,8.00
2022-12-25T09:08:42.000Z,8.02
2022-12-25T09:09:42.000Z,8.06
2022-12-25T09:10:42.000Z,8.10
2022-12-25T09:11:42.000Z,8.14
2022-12-25T09:12:42.000Z,8.20
2022-12-25T09:13:42.000Z,8.22
2022-12-25T09:14:42.000Z,8.28
2022-12-25T09:15:42.000Z,8.32
2022-12-25T09:16:42.000Z,8.34
2022-12-25T09:17:42.000Z,8.36
2022-12-25T09:18:42.000Z,8.40
2022-12-25T09:19:42.000Z,8.42
2022-12-25T09:20:42.000Z,8.49
2022-12-25T09:21:42.000Z,8.47
2022-12-25T09:22:42.000Z,8.50
2022-12-25T09:23:42.000Z,8.55
2022-12-25T09:24:42.000Z,8.57
2022-12-25T09:25:42.000Z,8.58
2022-12-25T09:26:42.000Z,8.61
2022-12-25T09:27:42.000Z,8.68
2022-12-25T09:28:42.000Z,8.70
2022-12-25T09:29:42.000Z,8.75
2022-12-25T09:30:42.000Z,8.79
2022-12-25T09:31:42.000Z,8.83
2022-12-25T09:32:42.000Z,8.85
2022-12-25T09:33:42.000Z,8.89
2022-12-25T09:34:42.000Z,8.96
2022-12-25T09:35:42.000Z,8.96
2022-12-25T09:36:42.000Z,9.01
2022-12-25T09:37:42.000Z,9.01
2022-12-25T09:38:42.000Z,9.04
2022-12-25T09:39:42.000Z,9.08
2022-12-25T09:40:42.000Z,9.08
2022-12-25T09:41:42.000Z,9.10
2022-12-25T09:42:42.000Z,9.12
2022-12-25T09:43:42.000Z,9.10
2022-12-25T09:44:42.000Z,9.13
2022-12-25T09:45:41.000Z,9.16
2022-12-25T09:46:41.000Z,9.17
2022-12-25T09:47:41.000Z,9.19
2022-12-25T09:48:41.000Z,9.20
2022-12-25T09:49:41.000Z,9.24
2022-12-25T09:50:41.000Z,9.23
2022-12-25T09:51:41.000Z,9.30
2022-12-25T09:52:41.000Z,9.27
2022-12-25T09:53:41.000Z,9.32
2022-12-25T09:54:41.000Z,9.34
2022-12-25T09:55:41.000Z,9.37
2022-12-25T09:56:41.000Z,9.41
2022-12-25T09:57:41.000Z,9.40
2022-12-25T09:58:41.000Z,9.49
2022-12-25T09:59:41.000Z,9.52
2022-12-25T10:00:41.000Z,9.55
2022-12-25T10:01:41.000Z,9.59
2022-12-25T10:02:41.000Z,9.63
2022-12-25T10:03:41.000Z,9.67
2022-12-25T10:04:41.000Z,9.71
2022-12-25T10:05:41.000Z,9.73
2022-12-25T10:06:41.000Z,9.78
2022-12-25T10:07:41.000Z,9.80
2022-12-25T10:08:41.000Z,9.88
2022-12-25T10:09:41.000Z,9.91
2022-12-25T10:10:41.000Z,9.92
2022-12-25T10:11:41.000Z,9.99
2022-12-25T10:12:41.000Z,9.99
2022-12-25T10:13:41.000Z,10.01
2022-12-25T10:14:41.000Z,10.02
2022-12-25T10:15:41.000Z,10.06
2022-12-25T10:16:41.000Z,10.10
2022-12-25T10:17:41.000Z,10.13
2022-12-25T10:18:41.000Z,10.14
2022-12-25T10:19:41.000Z,10.18
2022-12-25T10:20:41.000Z,10.22
2022-12-25T10:21:41.000Z,10.26
2022-12-25T10:22:41.000Z,10.29
2022-12-25T10:23:41.000Z,10.31
2022-12-25T10:24:41.000Z,10.32
2022-12-25T10:25:41.000Z,10.35
2022-12-25T10:26:41.000Z,10.42
2022-12-25T10:27:41.000Z,10.43
2022-12-25T10:28:41.000Z,10.46
2022-12-25T10:29:41.000Z,10.47
2022-12-25T10:30:41.000Z,10.54
2022-12-25T10:31:41.000Z,10.57
2022-12-25T10:32:41.000Z,10.62
2022-12-25T10:33:41.000Z,10.68
2022-12-25T10:34:41.000Z,10.75
2022-12-25T10:35:41.000Z,10.84
2022-12-25T10:36:41.000Z,10.93
2022-12-25T10:37:41.000Z,11.01
2022-12-25T10:38:41.000Z,11.09
2022-12-25T10:39:41.000Z,11.19
2022-12-25T10:40:41.000Z,11.30
2022-12-25T10:41:41.000Z,11.35
2022-12-25T10:42:41.000Z,11.41
2022-12-25T10:43:41.000Z,11.44
2022-12-25T10:44:41.000Z,11.48
2022-12-25T10:45:41.000Z,11.49
2022-12-25T10:46:41.000Z,11.45
2022-12-25T10:47:41.000Z,11.48
2022-12-25T10:48:41.000Z,11.44
2022-12-25T10:49:41.000Z,11.42
2022-12-25T10:50:41.000Z,11.42
2022-12-25T10:51:41.000Z,11.39
2022-12-25T10:52:41.000Z,11.38
2022-12-25T10:53:41.000Z,11.36
2022-12-25T10:54:41.000Z,11.33
2022-12-25T10:55:41.000Z,11.33
2022-12-25T10:56:41.000Z,11.31
2022-12-25T10:57:41.000Z,11.31
2022-12-25T10:58:41.000Z,11.33
2022-12-25T10:59:41.000Z,11.36
2022-12-25T11:00:41.000Z,11.44
2022-12-25T11:01:41.000Z,11.42
2022-12-25T11:02:41.000Z,11.41
2022-12-25T11:03:41.000Z,11.41
2022-12-25T11:04:41.000Z,11.42
2022-12-25T11:05:41.000Z,11.42
2022-12-25T11:06:41.000Z,11.42
2022-12-25T11:07:41.000Z,11.39
2022-12-25T11:08:41.000Z,11.42
2022-12-25T11:09:41.000Z,11.44
2022-12-25T11:10:41.000Z,11.42
2022-12-25T11:11:41.000Z,11.44
2022-12-25T11:12:41.000Z,11.39
2022-12-25T11:13:41.000Z,11.39
2022-12-25T11:14:41.000Z,11.38
2022-12-25T11:15:41.000Z,11.38
2022-12-25T11:16:41.000Z,11.36
2022-12-25T11:17:40.000Z,11.30
2022-12-25T11:18:40.000Z,11.31
2022-12-25T11:19:40.000Z,11.31
2022-12-25T11:20:40.000Z,11.30
2022-12-25T11:21:40.000Z,11.28
2022-12-25T11:22:40.000Z,11.24
2022-12-25T11:23:40.000Z,11.26
2022-12-25T11:24:40.000Z,11.24
2022-12-25T11:25:40.000Z,11.21
2022-12-25T11:26:40.000Z,11.20
2022-12-25T11:27:40.000Z,11.21
2022-12-25T11:28:40.000Z,11.21
2022-12-25T11:29:40.000Z,11.20
2022-12-25T11:30:40.000Z,11.19
2022-12-25T11:31:40.000Z,11.21
2022-12-25T11:32:40.000Z,11.23
2022-12-25T11:33:40.000Z,11.24
2022-12-25T11:34:40.000Z,11.21
2022-12-25T11:35:40.000Z,11.23
2022-12-25T11:36:40.000Z,11.27
2022-12-25T11:37:40.000Z,11.24
2022-12-25T11:38:40.000Z,11.28
2022-12-25T11:39:40.000Z,11.27
2022-12-25T11:40:40.000Z,11.27
2022-12-25T11:41:40.000Z,11.27
2022-12-25T11:42:40.000Z,11.28
2022-12-25T11:43:40.000Z,11.26
2022-12-25T11:44:40.000Z,11.26
2022-12-25T11:45:40.000Z,11.24
2022-12-25T11:46:40.000Z,11.26
2022-12-25T11:47:40.000Z,11.24
2022-12-25T11:48:40.000Z,11.23
2022-12-25T11:49:40.000Z,11.26
2022-12-25T11:50:40.000Z,11.24
2022-12-25T11:51:40.000Z,11.26
2022-12-25T11:52:40.000Z,11.28
2022-12-25T11:53:40.000Z,11.26
2022-12-25T11:54:40.000Z,11.26
2022-12-25T11:55:40.000Z,11.26
2022-12-25T11:56:40.000Z,11.27
2022-12-25T11:57:40.000Z,11.31
2022-12-25T11:58:40.000Z,11.31
2022-12-25T11:59:40.000Z,11.35
2022-12-25T12:00:40.000Z,11.35
2022-12-25T12:01:40.000Z,11.38
2022-12-25T12:02:40.000Z,11.42
2022-12-25T12:03:40.000Z,11.45
2022-12-25T12:04:40.000Z,11.46
2022-12-25T12:05:40.000Z,11.45
2022-12-25T12:06:40.000Z,11.49
2022-12-25T12:07:40.000Z,11.53
2022-12-25T12:08:40.000Z,11.54
2022-12-25T12:09:40.000Z,11.60
2022-12-25T12:10:40.000Z,11.60
2022-12-25T12:11:40.000Z,11.64
2022-12-25T12:12:40.000Z,11.66
2022-12-25T12:13:40.000Z,11.70
2022-12-25T12:14:40.000Z,11.74
2022-12-25T12:15:40.000Z,11.78
2022-12-25T12:16:40.000Z,11.81
2022-12-25T12:17:40.000Z,11.87
2022-12-25T12:18:40.000Z,11.88
2022-12-25T12:19:40.000Z,11.96
2022-12-25T12:20:40.000Z,11.94
2022-12-25T12:21:40.000Z,11.98
2022-12-25T12:22:40.000Z,12.00
2022-12-25T12:23:40.000Z,12.03
2022-12-25T12:24:40.000Z,12.07
2022-12-25T12:25:40.000Z,12.05
2022-12-25T12:26:40.000Z,12.08
2022-12-25T12:27:40.000Z,12.08
2022-12-25T12:28:40.000Z,12.08
2022-12-25T12:29:40.000Z,12.12
2022-12-25T12:30:40.000Z,12.05
2022-12-25T12:31:40.000Z,12.04
2022-12-25T12:32:40.000Z,12.01
2022-12-25T12:33:40.000Z,12.00
2022-12-25T12:34:40.000Z,11.98
2022-12-25T12:35:40.000Z,11.96
2022-12-25T12:36:40.000Z,11.94
2022-12-25T12:37:40.000Z,11.90
2022-12-25T12:38:40.000Z,11.93
2022-12-25T12:39:40.000Z,11.88
2022-12-25T12:40:40.000Z,11.87
2022-12-25T12:41:40.000Z,11.87
2022-12-25T12:42:40.000Z,11.87
2022-12-25T12:43:40.000Z,11.87
2022-12-25T12:44:40.000Z,11.88
2022-12-25T12:45:40.000Z,11.88
2022-12-25T12:46:40.000Z,11.85
2022-12-25T12:47:40.000Z,11.85
2022-12-25T12:48:40.000Z,11.85
2022-12-25T12:49:40.000Z,11.85
2022-12-25T12:50:40.000Z,11.85
2022-12-25T12:51:40.000Z,11.82
2022-12-25T12:52:40.000Z,11.84
2022-12-25T12:53:40.000Z,11.81
2022-12-25T12:54:40.000Z,11.81
2022-12-25T12:55:40.000Z,11.78
2022-12-25T12:56:40.000Z,11.74
2022-12-25T12:57:40.000Z,11.74
2022-12-25T12:58:39.000Z,11.67
2022-12-25T12:59:39.000Z,11.69
2022-12-25T13:00:39.000Z,11.66
2022-12-25T13:01:39.000Z,11.63
2022-12-25T13:02:39.000Z,11.62
2022-12-25T13:03:39.000Z,11.60
2022-12-25T13:04:39.000Z,11.57
2022-12-25T13:05:39.000Z,11.56
2022-12-25T13:06:39.000Z,11.53
2022-12-25T13:07:39.000Z,11.53